Gas Snapper — V7TZ3 — position and weather

sailwx.info

Track history (hours):
 
Tides and Currents Weather Stations Pressure Air Temp Water Temp Dewpoint Dewpoint Depression Visibility Wind Speed Wind Dir Waves Ship Positions

Gas Snapper

Last reported at 2016-Dec-08 01:06 UTC. Time now 2016-Dec-08 22:14 UTC.
Position N 36°22' W 002°07'.

Length 174 m; draft 7.1 m.

Type: Ship (hazmat cat D). MMSI: 538003911.

Date/timePositionNaut miles runAvg speedWind from/ knotsBaromVisibWave heightAir tempDewpointWater temp
2016-Dec-08 01:06N 36°22' W 002°07'  
2016-Nov-30 23:25N 35°56' W 005°13'8 9.2
2016-Nov-30 22:34N 35°58' W 005°22'2311.5
2016-Nov-30 20:31N 35°54' W 005°51'24310.1
2016-Nov-29 20:26N 38°11' W 010°03'1112.4
2016-Nov-29 19:33N 38°21' W 010°06'1312.5
2016-Nov-29 18:33N 38°33' W 010°10'1212.5
2016-Nov-29 17:33N 38°46' W 010°12'1312.6
2016-Nov-29 16:33N 38°58' W 010°13'1312.7
2016-Nov-29 15:33N 39°11' W 010°13'  
Track history (hours):
 
Tides and Currents Weather Stations Pressure Air Temp Water Temp Dewpoint Dewpoint Depression Visibility Wind Speed Wind Dir Waves Ship Positions

Gas Snapper

Last reported at 2016-Dec-08 01:06 UTC. Time now 2016-Dec-08 22:14 UTC.
Position N 36°22' W 002°07'.

Length 174 m; draft 7.1 m.

Type: Ship (hazmat cat D). MMSI: 538003911.

Date/timePositionNaut miles runAvg speedWind from/ knotsBaromVisibWave heightAir tempDewpointWater temp
2016-Dec-08 01:06N 36°22' W 002°07'  
2016-Nov-30 23:25N 35°56' W 005°13'8 9.2
2016-Nov-30 22:34N 35°58' W 005°22'2311.5
2016-Nov-30 20:31N 35°54' W 005°51'24310.1
2016-Nov-29 20:26N 38°11' W 010°03'1112.4
2016-Nov-29 19:33N 38°21' W 010°06'1312.5
2016-Nov-29 18:33N 38°33' W 010°10'1212.5
2016-Nov-29 17:33N 38°46' W 010°12'1312.6
2016-Nov-29 16:33N 38°58' W 010°13'1312.7
2016-Nov-29 15:33N 39°11' W 010°13'  

Dump ship's entire track history